TAF Text Data
IDs:
Format:
Raw Decoded Include METAR

Data at: 2104 UTC 20 Sep 2018

KTCC 201953Z AUTO 22009KT 10SM FEW110 28/15 A2987 RMK AO2 SLP048 T02830150

KTCC 201739Z 2018/2118 21015G25KT P6SM VCSH BKN050
  FM202000 24015KT P6SM VCTS OVC050CB
  TEMPO 2020/2024 VRB15G25KT -TSRA BKN040CB
  FM210100 30006KT P6SM VCSH BKN060
  FM210400 30006KT P6SM FEW060
  FM211200 02020G30KT P6SM SCT030